Time;durP1;ratioP1;P1;durP2;ratioP2;P2;SDS_P1;SDS_P2;PMS_P1;PMS_P2;Temp;Humidity;BMP_temperature;BMP_pressure;BME280_temperature;BME280_humidity;BME280_pressure;Samples;Min_cycle;Max_cycle;Signal;HPM_P1;HPM_P2
2022/12/25 00:01:44;;;;;;;35.13;9.75;;;;;;;6.35;100.00;98950.77;2182064;82;20968;-59
2022/12/25 00:04:46;;;;;;;29.07;10.20;;;;;;;6.31;100.00;98963.53;2182280;81;21443;-58
2022/12/25 00:07:47;;;;;;;31.75;10.63;;;;;;;6.23;100.00;98959.95;2181959;82;21048;-59
2022/12/25 00:10:49;;;;;;;30.10;11.07;;;;;;;6.23;100.00;98960.38;2175027;81;21551;-59
2022/12/25 00:13:50;;;;;;;28.85;10.05;;;;;;;6.19;100.00;98971.83;2172150;81;21048;-59
2022/12/25 00:16:52;;;;;;;27.13;9.03;;;;;;;6.21;100.00;98966.96;2172111;82;21104;-59
2022/12/25 00:19:53;;;;;;;30.40;10.37;;;;;;;6.22;100.00;98976.91;2172626;81;21053;-59
2022/12/25 00:22:56;;;;;;;29.60;10.13;;;;;;;6.17;100.00;98971.90;2172126;81;21283;-59
2022/12/25 00:25:57;;;;;;;;;;;;;;;6.19;100.00;98970.09;2174805;82;20973;-59
2022/12/25 00:28:59;;;;;;;30.90;10.15;;;;;;;6.16;100.00;98968.05;2172097;81;20430;-58
2022/12/25 00:32:00;;;;;;;32.13;9.98;;;;;;;6.10;100.00;98972.22;2172257;81;21013;-59
2022/12/25 00:35:02;;;;;;;29.85;10.08;;;;;;;6.02;100.00;98978.59;2172054;81;21139;-59
2022/12/25 00:38:03;;;;;;;31.20;10.63;;;;;;;6.01;100.00;98982.09;2172216;81;21048;-59
2022/12/25 00:41:05;;;;;;;31.33;10.72;;;;;;;6.03;100.00;98992.01;2172362;81;21032;-58
2022/12/25 00:44:06;;;;;;;28.47;10.90;;;;;;;6.13;100.00;98988.55;2172323;82;21065;-59
2022/12/25 00:47:08;;;;;;;31.93;10.58;;;;;;;6.12;100.00;98996.43;2172226;81;21048;-59
2022/12/25 00:50:09;;;;;;;29.80;9.78;;;;;;;6.14;100.00;99001.98;2172062;81;21056;-59
2022/12/25 00:53:11;;;;;;;33.80;10.88;;;;;;;6.24;100.00;99015.02;2172396;81;21089;-59
2022/12/25 00:56:13;;;;;;;30.15;10.95;;;;;;;6.14;100.00;99011.56;2171990;81;21053;-59
2022/12/25 00:59:14;;;;;;;33.20;11.33;;;;;;;6.17;100.00;99016.17;2172305;81;21028;-59
2022/12/25 01:05:19;;;;;;;38.15;12.15;;;;;;;6.20;100.00;99019.95;2161805;82;21023;-59
2022/12/25 01:08:20;;;;;;;35.48;11.53;;;;;;;6.19;100.00;99023.49;2172296;81;20978;-59
2022/12/25 01:11:22;;;;;;;35.85;12.28;;;;;;;6.05;100.00;99031.84;2172057;82;21064;-59
2022/12/25 01:14:23;;;;;;;37.00;13.72;;;;;;;6.08;100.00;99030.88;2172339;81;21535;-58
2022/12/25 01:17:25;;;;;;;37.45;13.35;;;;;;;6.12;100.00;99037.67;2172211;82;20985;-59
2022/12/25 01:20:26;;;;;;;35.13;13.25;;;;;;;6.12;100.00;99040.70;2172170;82;21515;-58
2022/12/25 01:23:27;;;;;;;40.15;12.70;;;;;;;6.13;100.00;99048.92;2172208;81;21610;-59
2022/12/25 01:26:29;;;;;;;33.33;13.32;;;;;;;6.24;100.00;99053.26;2172321;81;21045;-59
2022/12/25 01:29:30;;;;;;;44.25;16.87;;;;;;;6.19;100.00;99055.18;2171891;81;21139;-59
2022/12/25 01:32:32;;;;;;;44.23;17.52;;;;;;;6.21;100.00;99055.98;2172304;81;21080;-58
2022/12/25 01:35:33;;;;;;;42.45;16.17;;;;;;;6.23;100.00;99060.23;2172140;81;21040;-58
2022/12/25 01:38:34;;;;;;;39.08;16.32;;;;;;;6.28;100.00;99070.47;2172152;81;21532;-58
2022/12/25 01:41:37;;;;;;;41.77;16.02;;;;;;;6.33;100.00;99068.98;2172083;82;21132;-58
2022/12/25 01:44:38;;;;;;;45.92;16.67;;;;;;;6.32;100.00;99074.66;2172381;81;21559;-58
2022/12/25 01:47:40;;;;;;;41.10;14.15;;;;;;;6.21;100.00;99076.36;2172172;81;21040;-58
2022/12/25 01:50:41;;;;;;;38.53;13.10;;;;;;;6.14;100.00;99074.91;2172335;82;21590;-58
2022/12/25 01:53:43;;;;;;;35.88;13.13;;;;;;;6.28;100.00;99069.16;2172169;81;21049;-58
2022/12/25 01:56:44;;;;;;;36.73;14.00;;;;;;;6.24;100.00;99067.12;2172478;81;21000;-58
2022/12/25 01:59:46;;;;;;;44.45;15.03;;;;;;;6.34;100.00;99068.91;2171997;81;21036;-59
2022/12/25 02:02:47;;;;;;;37.65;13.88;;;;;;;6.23;100.00;99066.75;2172282;81;21885;-58
2022/12/25 02:05:49;;;;;;;37.37;14.27;;;;;;;6.21;100.00;99067.24;2171863;82;21096;-58
2022/12/25 02:08:50;;;;;;;39.08;14.43;;;;;;;6.35;100.00;99069.31;2172195;81;21507;-59
2022/12/25 02:14:55;;;;;;;39.58;14.80;;;;;;;6.49;100.00;99075.72;2161776;82;21676;-59
2022/12/25 02:17:57;;;;;;;38.10;13.65;;;;;;;6.53;100.00;99074.69;2172086;81;21449;-59
2022/12/25 02:20:58;;;;;;;44.87;14.80;;;;;;;6.54;100.00;99085.05;2172254;81;21029;-59
2022/12/25 02:23:59;;;;;;;43.08;18.10;;;;;;;6.57;100.00;99074.50;2171880;81;21623;-58
2022/12/25 02:27:01;;;;;;;72.70;29.70;;;;;;;6.51;100.00;99071.31;2172137;81;21044;-58
2022/12/25 02:30:03;;;;;;;69.63;27.50;;;;;;;6.58;100.00;99072.30;2172335;81;21117;-58
2022/12/25 02:36:08;;;;;;;47.20;20.05;;;;;;;6.90;100.00;99079.70;2161753;82;21048;-58
2022/12/25 02:42:12;;;;;;;41.28;18.40;;;;;;;6.65;100.00;99078.55;2161842;82;21484;-58
2022/12/25 03:12:44;;;;;;;32.65;11.20;;;;;;;6.46;100.00;99091.48;2172048;81;20989;-58
2022/12/25 03:18:48;;;;;;;29.80;10.90;;;;;;;6.41;100.00;99094.28;2171825;81;21484;-59
2022/12/25 03:27:56;;;;;;;33.18;12.37;;;;;;;6.53;100.00;99101.59;2171975;81;20953;-59
2022/12/25 03:37:13;;;;;;;32.17;11.33;;;;;;;6.69;100.00;99107.50;2172040;81;20977;-58
2022/12/25 04:38:11;;;;;;;33.55;11.48;;;;;;;5.88;100.00;99153.98;2161948;82;21001;-59
2022/12/25 04:41:12;;;;;;;33.88;11.60;;;;;;;5.83;100.00;99153.29;2172402;81;21028;-59
2022/12/25 04:44:14;;;;;;;35.65;11.75;;;;;;;5.78;100.00;99152.63;2172319;81;21021;-59
2022/12/25 04:47:15;;;;;;;33.67;12.05;;;;;;;5.68;100.00;99162.51;2172578;81;21531;-58
2022/12/25 04:50:17;;;;;;;32.30;11.22;;;;;;;5.64;100.00;99166.12;2172288;81;21025;-58
2022/12/25 04:53:18;;;;;;;33.10;12.20;;;;;;;5.63;100.00;99167.02;2172328;81;21547;-59
2022/12/25 04:56:20;;;;;;;33.65;12.13;;;;;;;5.69;100.00;99166.82;2172223;81;21033;-58
2022/12/25 04:59:21;;;;;;;31.77;11.80;;;;;;;5.63;100.00;99170.48;2172065;81;21044;-58
2022/12/25 05:02:22;;;;;;;30.43;11.25;;;;;;;5.62;100.00;99171.84;2172210;81;20969;-59
2022/12/25 05:05:24;;;;;;;34.43;13.20;;;;;;;5.76;100.00;99173.50;2172075;81;21130;-58
2022/12/25 05:08:25;;;;;;;32.48;11.85;;;;;;;5.85;100.00;99170.56;2172211;81;21582;-58
2022/12/25 05:11:27;;;;;;;36.05;12.43;;;;;;;5.94;100.00;99165.47;2171875;81;21064;-58
2022/12/25 05:14:28;;;;;;;32.00;12.53;;;;;;;6.03;100.00;99163.88;2171950;82;20990;-59
2022/12/25 05:17:30;;;;;;;35.75;13.40;;;;;;;6.08;100.00;99165.00;2172285;81;21559;-58
2022/12/25 05:20:31;;;;;;;36.05;12.82;;;;;;;6.04;100.00;99164.25;2172086;81;21038;-58
2022/12/25 05:23:32;;;;;;;34.25;12.25;;;;;;;6.04;100.00;99157.73;2172077;81;21065;-58
2022/12/25 05:26:34;;;;;;;33.25;11.38;;;;;;;6.05;100.00;99175.07;2172036;81;21017;-59
2022/12/25 05:29:35;;;;;;;31.85;11.60;;;;;;;5.98;100.00;99173.59;2172169;81;21033;-59
2022/12/25 05:32:37;;;;;;;35.73;11.80;;;;;;;5.95;100.00;99177.59;2171985;81;21084;-58
2022/12/25 05:35:39;;;;;;;32.23;11.23;;;;;;;5.97;100.00;99180.13;2172474;81;21024;-59
2022/12/25 05:38:40;;;;;;;32.98;11.53;;;;;;;6.01;100.00;99190.88;2172034;81;21033;-58
2022/12/25 05:41:42;;;;;;;31.75;11.20;;;;;;;6.00;100.00;99191.30;2172175;81;21079;-59
2022/12/25 05:44:43;;;;;;;36.58;12.28;;;;;;;6.12;100.00;99190.46;2172025;81;21112;-58
2022/12/25 05:47:45;;;;;;;32.55;12.33;;;;;;;6.16;100.00;99198.56;2171920;81;21073;-59
2022/12/25 05:50:46;;;;;;;31.62;11.60;;;;;;;6.27;100.00;99200.31;2172012;81;21084;-58
2022/12/25 05:53:48;;;;;;;35.00;12.18;;;;;;;6.40;100.00;99201.55;2172211;82;21554;-59
2022/12/25 05:56:49;;;;;;;36.73;13.22;;;;;;;6.50;100.00;99202.52;2172002;81;21046;-59
2022/12/25 05:59:51;;;;;;;32.85;11.95;;;;;;;6.48;100.00;99203.02;2171977;81;21084;-58
2022/12/25 06:02:52;;;;;;;35.20;12.53;;;;;;;6.36;100.00;99209.08;2172389;81;21017;-58
2022/12/25 06:05:54;;;;;;;33.67;12.03;;;;;;;6.36;100.00;99209.08;2171999;81;21352;-58
2022/12/25 06:08:55;;;;;;;35.55;12.63;;;;;;;6.43;100.00;99213.61;2172136;81;21132;-59
2022/12/25 06:11:57;;;;;;;34.03;12.90;;;;;;;6.52;100.00;99220.23;2171790;81;21392;-59
2022/12/25 06:14:58;;;;;;;35.40;13.00;;;;;;;6.40;100.00;99228.06;2172353;81;21564;-59
2022/12/25 06:18:00;;;;;;;33.67;13.20;;;;;;;6.40;100.00;99228.06;2172121;81;21452;-59
2022/12/25 06:21:01;;;;;;;38.00;13.43;;;;;;;6.47;100.00;99233.91;2172271;81;21048;-59
2022/12/25 06:24:03;;;;;;;36.25;13.62;;;;;;;6.45;100.00;99238.31;2172164;81;21052;-59
2022/12/25 06:27:04;;;;;;;36.60;14.05;;;;;;;6.37;100.00;99244.66;2171982;82;21044;-58
2022/12/25 06:30:06;;;;;;;35.00;14.75;;;;;;;6.40;100.00;99248.45;2172021;81;21108;-58
2022/12/25 06:33:07;;;;;;;40.78;13.83;;;;;;;6.44;100.00;99250.94;2171674;81;21004;-59
2022/12/25 06:36:09;;;;;;;38.63;14.43;;;;;;;6.43;100.00;99259.69;2172336;81;21491;-59
2022/12/25 06:39:10;;;;;;;38.80;15.40;;;;;;;6.46;100.00;99254.35;2172262;81;20977;-59
2022/12/25 06:42:11;;;;;;;41.60;14.83;;;;;;;6.43;100.00;99263.59;2172205;81;21045;-59
2022/12/25 06:45:13;;;;;;;41.80;16.02;;;;;;;6.50;100.00;99272.88;2172420;81;21049;-59
2022/12/25 06:48:14;;;;;;;41.50;13.98;;;;;;;6.51;100.00;99281.94;2172174;82;20977;-59
2022/12/25 06:51:16;;;;;;;41.53;15.58;;;;;;;6.50;100.00;99292.42;2172354;81;20992;-59
2022/12/25 06:54:17;;;;;;;42.75;15.75;;;;;;;6.45;100.00;99295.21;2172231;81;21091;-59
2022/12/25 06:57:18;;;;;;;42.58;15.80;;;;;;;6.44;100.00;99304.36;2172108;81;21554;-59
2022/12/25 07:00:20;;;;;;;36.57;14.17;;;;;;;6.44;100.00;99311.74;2172445;82;20949;-58
2022/12/25 07:03:22;;;;;;;40.87;15.83;;;;;;;6.51;100.00;99318.89;2172532;81;21540;-59
2022/12/25 07:06:23;;;;;;;45.88;16.48;;;;;;;6.49;100.00;99331.95;2172328;81;20996;-59
2022/12/25 07:09:25;;;;;;;36.08;12.78;;;;;;;6.44;100.00;99339.10;2172184;81;21587;-59
2022/12/25 07:12:26;;;;;;;38.13;12.98;;;;;;;6.41;100.00;99350.48;2182712;81;21019;-58
2022/12/25 07:15:28;;;;;;;35.20;12.33;;;;;;;6.35;100.00;99355.05;2189362;81;21020;-59
2022/12/25 07:18:30;;;;;;;38.20;12.60;;;;;;;6.30;100.00;99348.70;2189199;81;21348;-59
2022/12/25 07:21:31;;;;;;;35.90;12.50;;;;;;;6.34;100.00;99354.67;2188766;81;20985;-59
2022/12/25 07:24:32;;;;;;;33.58;12.37;;;;;;;6.34;100.00;99361.19;2188845;81;21012;-59
2022/12/25 07:27:34;;;;;;;33.40;12.23;;;;;;;6.30;100.00;99370.01;2188748;81;20981;-59
2022/12/25 07:30:35;;;;;;;41.85;12.78;;;;;;;6.28;100.00;99378.31;2188414;81;21487;-59
2022/12/25 07:33:37;;;;;;;32.63;11.73;;;;;;;6.29;100.00;99377.42;2188720;81;21035;-58
2022/12/25 07:36:38;;;;;;;35.70;12.00;;;;;;;6.32;100.00;99381.22;2188874;81;21447;-58
2022/12/25 07:39:40;;;;;;;31.33;12.07;;;;;;;6.29;100.00;99387.38;2188949;81;20980;-58
2022/12/25 07:42:41;;;;;;;33.10;12.00;;;;;;;6.29;100.00;99385.23;2188735;81;21003;-59
2022/12/25 07:45:42;;;;;;;34.45;12.45;;;;;;;6.29;100.00;99395.19;2188824;81;20981;-59
2022/12/25 07:48:44;;;;;;;36.30;12.53;;;;;;;6.49;100.00;99389.75;2188327;81;21012;-59
2022/12/25 07:51:47;;;;;;;36.28;12.95;;;;;;;6.53;100.00;99397.86;2171573;81;21547;-59
2022/12/25 07:54:49;;;;;;;36.68;13.10;;;;;;;6.59;100.00;99399.81;2188979;81;21024;-59
2022/12/25 07:57:50;;;;;;;37.33;13.27;;;;;;;6.69;100.00;99405.98;2188948;81;21055;-58
2022/12/25 08:00:52;;;;;;;37.40;13.03;;;;;;;6.73;100.00;99414.94;2188959;81;20964;-59
2022/12/25 08:03:53;;;;;;;39.42;14.30;;;;;;;6.76;100.00;99411.38;2188706;81;20975;-58
2022/12/25 08:06:54;;;;;;;37.60;14.43;;;;;;;6.76;100.00;99414.83;2188686;81;21526;-59
2022/12/25 08:09:56;;;;;;;42.40;15.10;;;;;;;6.75;100.00;99416.19;2188703;81;20976;-59
2022/12/25 08:12:57;;;;;;;41.10;14.65;;;;;;;6.76;100.00;99410.08;2188612;81;21012;-58
2022/12/25 08:15:59;;;;;;;39.75;15.55;;;;;;;6.80;100.00;99415.58;2188748;81;21084;-59
2022/12/25 08:19:01;;;;;;;49.18;18.55;;;;;;;6.88;100.00;99414.86;2188675;81;21036;-58
2022/12/25 08:22:02;;;;;;;50.50;18.37;;;;;;;6.88;100.00;99417.47;2188400;81;21633;-58
2022/12/25 08:25:03;;;;;;;50.28;19.05;;;;;;;7.03;100.00;99413.43;2188703;81;21071;-59
2022/12/25 08:28:05;;;;;;;52.65;21.50;;;;;;;6.81;100.00;99412.08;2188690;81;21571;-58
2022/12/25 08:31:06;;;;;;;54.90;20.57;;;;;;;7.15;100.00;99406.90;2188953;81;20948;-59
2022/12/25 08:34:08;;;;;;;50.17;19.98;;;;;;;6.98;100.00;99404.91;2188966;81;21526;-58
2022/12/25 08:37:10;;;;;;;49.45;19.10;;;;;;;6.95;100.00;99414.16;2188854;81;20977;-58
2022/12/25 08:40:11;;;;;;;42.65;18.17;;;;;;;6.91;100.00;99413.44;2188700;81;21015;-59
2022/12/25 08:43:12;;;;;;;47.85;17.98;;;;;;;6.86;100.00;99406.69;2188901;81;20985;-58
2022/12/25 08:46:14;;;;;;;37.00;14.58;;;;;;;7.01;100.00;99393.52;2188922;81;21007;-58
2022/12/25 08:49:15;;;;;;;43.38;16.48;;;;;;;7.15;100.00;99399.54;2188312;81;21000;-59
2022/12/25 08:52:17;;;;;;;46.30;17.77;;;;;;;7.17;100.00;99381.62;2189139;81;21558;-58
2022/12/25 08:55:18;;;;;;;42.17;16.27;;;;;;;7.18;100.00;99391.13;2188682;81;21449;-58
2022/12/25 08:58:20;;;;;;;39.33;15.83;;;;;;;7.16;100.00;99403.86;2189173;81;21543;-59
2022/12/25 09:01:22;;;;;;;36.13;13.13;;;;;;;7.24;100.00;99397.44;2188937;81;21602;-58
2022/12/25 09:04:23;;;;;;;39.50;13.83;;;;;;;7.29;100.00;99403.31;2188872;81;20980;-59
2022/12/25 09:07:25;;;;;;;41.33;14.55;;;;;;;7.35;100.00;99405.30;2188732;81;20957;-58
2022/12/25 09:10:26;;;;;;;49.90;19.65;;;;;;;7.38;100.00;99407.33;2189005;81;21009;-58
2022/12/25 09:13:27;;;;;;;44.55;16.57;;;;;;;7.49;100.00;99415.22;2175162;81;21060;-58
2022/12/25 09:16:29;;;;;;;44.73;16.40;;;;;;;7.60;100.00;99420.41;2172382;81;21083;-59
2022/12/25 09:19:30;;;;;;;47.15;18.60;;;;;;;7.48;100.00;99417.42;2172051;81;21045;-59
2022/12/25 09:22:32;;;;;;;44.03;16.35;;;;;;;7.45;100.00;99418.39;2172337;81;21537;-59
2022/12/25 09:25:33;;;;;;;40.23;15.03;;;;;;;7.45;100.00;99421.84;2172016;81;21049;-59
2022/12/25 09:28:35;;;;;;;37.38;14.45;;;;;;;7.48;100.00;99414.81;2172292;81;21559;-59
2022/12/25 09:31:36;;;;;;;33.92;14.53;;;;;;;7.55;100.00;99420.19;2172137;81;21049;-59
2022/12/25 09:34:38;;;;;;;38.08;14.87;;;;;;;7.53;100.00;99425.47;2171946;82;21077;-59
2022/12/25 09:37:40;;;;;;;38.42;15.65;;;;;;;7.57;100.00;99430.11;2172232;81;21052;-58
2022/12/25 09:40:41;;;;;;;35.95;14.68;;;;;;;7.62;100.00;99431.63;2172008;81;21064;-59
2022/12/25 09:43:42;;;;;;;39.33;15.00;;;;;;;7.62;100.00;99438.63;2172291;81;21520;-58
2022/12/25 09:46:45;;;;;;;36.40;14.47;;;;;;;7.62;100.00;99437.31;2171751;82;21077;-58
2022/12/25 09:49:46;;;;;;;41.80;16.35;;;;;;;7.72;100.00;99439.12;2172291;81;21025;-58
2022/12/25 09:52:48;;;;;;;37.75;16.12;;;;;;;7.76;100.00;99431.56;2172077;81;21080;-59
2022/12/25 09:55:50;;;;;;;37.42;14.68;;;;;;;7.77;100.00;99435.41;2172374;81;20973;-59
2022/12/25 09:58:51;;;;;;;35.92;14.53;;;;;;;7.72;100.00;99433.89;2172133;81;21099;-59
2022/12/25 10:01:52;;;;;;;36.28;13.32;;;;;;;7.69;100.00;99435.33;2172418;81;21591;-58
2022/12/25 10:04:54;;;;;;;36.55;13.20;;;;;;;7.89;100.00;99431.92;2172133;81;20993;-59
2022/12/25 10:07:55;;;;;;;36.20;13.98;;;;;;;7.94;100.00;99432.13;2172067;81;21572;-58
2022/12/25 10:10:57;;;;;;;37.03;13.28;;;;;;;7.97;100.00;99431.13;2172316;81;21037;-59
2022/12/25 10:13:58;;;;;;;34.45;11.65;;;;;;;7.95;100.00;99428.58;2186690;81;21070;-59
2022/12/25 10:16:59;;;;;;;34.67;10.15;;;;;;;8.04;100.00;99429.97;2188895;81;21020;-58
2022/12/25 10:20:01;;;;;;;35.13;10.00;;;;;;;8.09;100.00;99441.09;2188711;81;21020;-59
2022/12/25 10:23:02;;;;;;;31.62;10.95;;;;;;;8.02;100.00;99435.73;2188708;81;21519;-59
2022/12/25 10:26:04;;;;;;;31.77;11.08;;;;;;;8.02;100.00;99435.73;2188718;81;20992;-59
2022/12/25 10:29:05;;;;;;;26.23;9.33;;;;;;;8.02;100.00;99432.27;2188973;81;21487;-59
2022/12/25 10:32:07;;;;;;;27.77;9.13;;;;;;;8.05;100.00;99423.84;2188696;81;20990;-59
2022/12/25 10:35:08;;;;;;;31.63;9.57;;;;;;;8.14;100.00;99436.52;2188926;81;21035;-59
2022/12/25 10:38:10;;;;;;;28.02;9.05;;;;;;;8.24;100.00;99427.84;2188339;81;21266;-59
2022/12/25 10:41:12;;;;;;;25.90;8.40;;;;;;;8.28;100.00;99426.80;2188921;81;21070;-59
2022/12/25 10:44:13;;;;;;;28.85;8.20;;;;;;;8.27;100.00;99418.56;2188859;81;21229;-59
2022/12/25 10:47:14;;;;;;;26.40;8.83;;;;;;;8.14;100.00;99415.61;2188536;81;21009;-59
2022/12/25 10:50:16;;;;;;;24.32;8.03;;;;;;;8.20;100.00;99416.28;2188714;81;21478;-59
2022/12/25 10:53:17;;;;;;;27.87;8.05;;;;;;;8.21;100.00;99411.45;2188590;81;21032;-59
2022/12/25 10:56:19;;;;;;;30.62;10.50;;;;;;;8.29;100.00;99413.30;2188505;81;21064;-58
2022/12/25 10:59:20;;;;;;;30.62;10.65;;;;;;;8.32;100.00;99402.70;2188684;81;21472;-59
2022/12/25 11:02:22;;;;;;;29.48;9.33;;;;;;;8.50;100.00;99401.08;2188575;81;20976;-59
2022/12/25 11:05:23;;;;;;;31.73;9.55;;;;;;;8.52;100.00;99399.27;2188618;81;21560;-59
2022/12/25 11:08:25;;;;;;;29.52;9.88;;;;;;;8.60;100.00;99398.92;2188677;81;20976;-59
2022/12/25 11:11:26;;;;;;;30.02;10.45;;;;;;;8.67;100.00;99413.42;2188591;81;21048;-59
2022/12/25 11:14:29;;;;;;;28.95;9.45;;;;;;;8.63;100.00;99399.66;2172751;81;21097;-59
2022/12/25 11:17:31;;;;;;;28.57;8.63;;;;;;;8.93;100.00;99391.33;2171940;82;21584;-59
2022/12/25 11:20:32;;;;;;;24.52;6.70;;;;;;;8.89;100.00;99392.86;2172260;81;21045;-59
2022/12/25 11:23:34;;;;;;;26.05;6.85;;;;;;;8.83;100.00;99393.98;2172130;81;21072;-58
2022/12/25 11:26:35;;;;;;;27.98;7.47;;;;;;;8.86;100.00;99395.14;2172302;81;21032;-59
2022/12/25 11:29:37;;;;;;;28.70;8.58;;;;;;;9.03;100.00;99385.23;2172304;81;21053;-59
2022/12/25 11:32:38;;;;;;;27.10;9.15;;;;;;;8.88;100.00;99372.84;2172373;82;21020;-59
2022/12/25 11:35:40;;;;;;;29.25;8.80;;;;;;;9.10;100.00;99393.19;2171988;81;21101;-58
2022/12/25 11:38:41;;;;;;;25.48;7.55;;;;;;;9.22;100.00;99379.98;2172300;81;21540;-59
2022/12/25 11:41:43;;;;;;;24.72;6.33;;;;;;;9.32;100.00;99387.83;2172193;81;21068;-58
2022/12/25 11:44:44;;;;;;;28.10;9.80;;;;;;;9.11;100.00;99386.20;2172132;81;21479;-59
2022/12/25 11:47:46;;;;;;;28.40;9.15;;;;;;;9.19;100.00;99386.67;2172253;81;20977;-59
2022/12/25 11:50:47;;;;;;;33.33;13.28;;;;;;;9.01;100.00;99383.99;2172097;81;21067;-59
2022/12/25 11:53:49;;;;;;;27.02;8.28;;;;;;;9.10;100.00;99388.42;2172277;81;21020;-59
2022/12/25 11:56:50;;;;;;;29.37;11.45;;;;;;;8.97;100.00;99395.52;2172082;81;21032;-59
2022/12/25 11:59:52;;;;;;;32.57;11.30;;;;;;;8.87;100.00;99392.92;2172411;82;21606;-59
2022/12/25 12:02:53;;;;;;;26.17;9.40;;;;;;;8.93;100.00;99392.64;2172402;81;20981;-59
2022/12/25 12:05:55;;;;;;;27.37;9.93;;;;;;;8.83;100.00;99400.52;2172449;81;21433;-59
2022/12/25 12:08:57;;;;;;;33.95;12.00;;;;;;;8.80;100.00;99398.05;2172112;81;20997;-59
2022/12/25 12:11:58;;;;;;;27.35;9.73;;;;;;;8.87;100.00;99391.63;2172994;81;21498;-58
2022/12/25 12:15:00;;;;;;;30.33;11.37;;;;;;;9.07;100.00;99388.57;2188975;81;20980;-59
2022/12/25 12:18:01;;;;;;;34.23;11.03;;;;;;;9.04;100.00;99389.99;2188926;81;21292;-59
2022/12/25 12:21:03;;;;;;;31.27;10.88;;;;;;;9.06;100.00;99391.63;2188833;81;21016;-59
2022/12/25 12:24:04;;;;;;;31.87;9.67;;;;;;;9.03;100.00;99393.55;2188953;81;21016;-58
2022/12/25 12:27:06;;;;;;;31.37;11.15;;;;;;;8.95;100.00;99403.91;2188768;81;21083;-59
2022/12/25 12:30:07;;;;;;;32.05;12.75;;;;;;;8.87;100.00;99403.86;2188734;81;21090;-59
2022/12/25 12:33:09;;;;;;;34.57;11.73;;;;;;;8.76;100.00;99409.55;2189243;81;21521;-58
2022/12/25 12:36:10;;;;;;;34.73;11.80;;;;;;;8.75;100.00;99420.48;2188617;81;21064;-59
2022/12/25 12:39:12;;;;;;;31.87;11.40;;;;;;;8.48;100.00;99415.53;2188667;81;21045;-59
2022/12/25 12:42:13;;;;;;;27.80;10.82;;;;;;;8.44;100.00;99422.23;2188954;81;20972;-59
2022/12/25 12:45:15;;;;;;;29.73;10.27;;;;;;;8.42;100.00;99422.30;2188993;81;21072;-58
2022/12/25 12:48:16;;;;;;;32.50;10.15;;;;;;;8.37;100.00;99428.64;2188764;81;21452;-58
2022/12/25 12:51:18;;;;;;;37.47;10.87;;;;;;;8.25;100.00;99432.16;2188923;81;21032;-58
2022/12/25 12:54:19;;;;;;;34.18;10.35;;;;;;;8.36;100.00;99423.02;2188608;81;21578;-59
2022/12/25 12:57:21;;;;;;;37.10;11.80;;;;;;;8.30;100.00;99424.98;2188698;81;21099;-59
2022/12/25 13:00:23;;;;;;;31.97;10.63;;;;;;;8.43;100.00;99425.76;2189179;81;21490;-59
2022/12/25 13:03:24;;;;;;;36.68;12.75;;;;;;;8.31;100.00;99420.59;2188899;81;21388;-59
2022/12/25 13:06:26;;;;;;;36.33;13.08;;;;;;;8.45;100.00;99417.44;2188887;81;20969;-58
2022/12/25 13:09:27;;;;;;;36.00;11.70;;;;;;;8.66;100.00;99409.98;2188584;81;20968;-58
2022/12/25 13:12:29;;;;;;;37.40;12.68;;;;;;;8.78;100.00;99400.73;2186411;81;21604;-59
2022/12/25 13:15:30;;;;;;;35.80;14.75;;;;;;;8.95;100.00;99404.34;2172168;81;21076;-59
2022/12/25 13:18:32;;;;;;;35.10;15.23;;;;;;;9.11;100.00;99403.22;2172261;81;21041;-59
2022/12/25 13:21:33;;;;;;;35.20;13.72;;;;;;;9.32;100.00;99397.43;2172192;81;21064;-59
2022/12/25 13:24:35;;;;;;;42.23;17.92;;;;;;;9.48;100.00;99403.66;2171929;81;21133;-58
2022/12/25 13:27:36;;;;;;;56.63;25.88;;;;;;;9.56;100.00;99405.91;2172177;81;20978;-59
2022/12/25 13:30:38;;;;;;;58.55;24.90;;;;;;;9.64;100.00;99409.45;2172050;81;21122;-59
2022/12/25 13:33:39;;;;;;;49.18;20.00;;;;;;;9.65;100.00;99412.47;2172336;81;21500;-58
2022/12/25 13:36:40;;;;;;;46.18;18.15;;;;;;;9.66;100.00;99416.32;2172015;81;21104;-59
2022/12/25 13:39:42;;;;;;;50.70;20.37;;;;;;;9.83;100.00;99412.06;2172047;81;21564;-59
2022/12/25 13:42:44;;;;;;;46.23;18.85;;;;;;;9.89;100.00;99410.44;2171817;81;21060;-59
2022/12/25 13:45:45;;;;;;;40.75;16.25;;;;;;;9.90;100.00;99404.28;2172369;81;21047;-58
2022/12/25 13:48:47;;;;;;;36.10;14.05;;;;;;;9.79;100.00;99403.48;2172154;81;21028;-58
2022/12/25 13:51:48;;;;;;;42.80;16.60;;;;;;;9.71;100.00;99403.00;2171936;82;20997;-58
2022/12/25 13:54:50;;;;;;;34.43;15.08;;;;;;;9.63;100.00;99399.45;2172312;81;20973;-58
2022/12/25 13:57:51;;;;;;;34.83;14.70;;;;;;;9.63;100.00;99395.52;2171988;81;21108;-59
2022/12/25 14:00:53;;;;;;;35.92;13.55;;;;;;;9.46;100.00;99394.17;2172213;81;21587;-59
2022/12/25 14:03:54;;;;;;;37.17;13.25;;;;;;;9.44;100.00;99396.87;2171995;81;21077;-59
2022/12/25 14:06:56;;;;;;;35.27;13.67;;;;;;;9.35;100.00;99398.15;2172413;82;21534;-59
2022/12/25 14:09:57;;;;;;;36.48;14.18;;;;;;;9.23;100.00;99407.03;2172059;81;21044;-59
2022/12/25 14:12:58;;;;;;;35.25;13.70;;;;;;;9.24;100.00;99405.65;2171942;81;21571;-59
2022/12/25 14:16:00;;;;;;;33.83;13.80;;;;;;;9.23;100.00;99409.17;2172100;81;21079;-60
2022/12/25 14:19:01;;;;;;;33.33;13.53;;;;;;;9.19;100.00;99408.92;2172020;81;21065;-59
2022/12/25 14:22:03;;;;;;;34.08;14.10;;;;;;;9.02;100.00;99417.54;2172274;81;21072;-59
2022/12/25 14:25:05;;;;;;;34.95;14.40;;;;;;;9.12;100.00;99417.54;2172059;82;21100;-59
2022/12/25 14:28:06;;;;;;;35.95;14.90;;;;;;;9.07;100.00;99411.66;2172311;81;21625;-59
2022/12/25 14:31:07;;;;;;;33.80;14.18;;;;;;;9.03;100.00;99407.47;2172168;81;21053;-59
2022/12/25 14:34:09;;;;;;;38.15;14.60;;;;;;;8.91;100.00;99419.81;2172379;82;21425;-59
2022/12/25 14:37:10;;;;;;;38.78;15.05;;;;;;;8.83;100.00;99418.39;2172251;81;21037;-59
2022/12/25 14:40:12;;;;;;;36.95;14.35;;;;;;;8.77;100.00;99417.80;2172124;81;21056;-59
2022/12/25 14:43:13;;;;;;;39.38;14.90;;;;;;;8.64;100.00;99418.80;2172170;81;21087;-59
2022/12/25 14:46:15;;;;;;;35.80;13.03;;;;;;;8.51;100.00;99424.17;2172137;81;21101;-59
2022/12/25 14:49:16;;;;;;;37.33;13.85;;;;;;;8.32;100.00;99425.76;2172353;81;21034;-59
2022/12/25 14:52:17;;;;;;;34.20;13.30;;;;;;;8.19;100.00;99432.42;2172149;81;21048;-59
2022/12/25 14:55:19;;;;;;;33.38;13.05;;;;;;;7.90;100.00;99442.30;2172399;81;21468;-58
2022/12/25 14:58:21;;;;;;;31.87;11.60;;;;;;;7.72;100.00;99430.81;2172353;81;20973;-58
2022/12/25 15:01:22;;;;;;;29.27;9.97;;;;;;;7.56;100.00;99416.21;2172701;81;21479;-58
2022/12/25 15:04:24;;;;;;;29.48;10.53;;;;;;;7.38;100.00;99403.41;2172210;81;21020;-59
2022/12/25 15:07:25;;;;;;;28.60;9.83;;;;;;;7.22;100.00;99412.75;2172163;81;21047;-58
2022/12/25 15:10:27;;;;;;;30.70;11.60;;;;;;;7.04;100.00;99398.62;2172387;81;21104;-59
2022/12/25 15:13:28;;;;;;;29.00;9.65;;;;;;;7.00;100.00;99404.89;2176500;81;21060;-58
2022/12/25 15:16:29;;;;;;;26.87;9.83;;;;;;;6.91;100.00;99408.22;2188742;81;21479;-59
2022/12/25 15:19:33;;;;;;;28.00;9.80;;;;;;;6.83;100.00;99397.67;2188808;81;20985;-59
2022/12/25 15:22:34;;;;;;;27.58;9.43;;;;;;;6.67;100.00;99398.69;2189009;81;21741;-58
2022/12/25 15:25:35;;;;;;;29.12;10.72;;;;;;;6.55;100.00;99403.43;2188733;81;20961;-59
2022/12/25 15:28:37;;;;;;;26.80;10.15;;;;;;;6.43;100.00;99416.03;2188733;81;20968;-58
2022/12/25 15:31:38;;;;;;;25.57;9.55;;;;;;;6.28;100.00;99427.81;2188996;81;20980;-58
2022/12/25 15:34:40;;;;;;;27.48;10.15;;;;;;;6.30;100.00;99435.14;2188782;81;21017;-58
2022/12/25 15:37:41;;;;;;;31.90;14.18;;;;;;;6.24;100.00;99459.18;2188637;81;21581;-58
2022/12/25 15:40:43;;;;;;;23.70;8.83;;;;;;;6.36;100.00;99462.28;2189009;81;20976;-59
2022/12/25 15:43:44;;;;;;;23.57;8.18;;;;;;;6.31;100.00;99457.70;2188756;81;21522;-58
2022/12/25 15:46:46;;;;;;;25.15;9.40;;;;;;;6.17;100.00;99442.05;2188799;81;21016;-59
2022/12/25 15:49:48;;;;;;;28.32;10.55;;;;;;;5.98;100.00;99436.60;2188976;81;21570;-58